SYR - Syracuse Hancock Intl

Pirep is a free, collaborative database of all public and private airports located within the United States. All pilots are welcome to contribute, edit, and improve any airport they have local knowledge about, no registration required.
Uploaded photos will be licensed under a CC BY-SA 4.0 license. Please only upload photos you have the rights to use.
Tags
Public
METAR / TAF
Flying Clubs
Edit Tags
Food
Camping
Lodging
Car Rental
Bicycles
Swimming
Golfing
Fishing
Hot Springs
Museum
Airpark
Upcoming Events
No upcoming events. Is anything happening here soon?
*
*
*

Where exactly on/near the airport is this event taking place?

Is there a webpage with more information for this event?

Who should be contacted for more information?

What is this event all about?

Repeat every
Description
Transient Parking
Fuel Location
Landing & Tie-down Fees
Crew Car Availability
Flying Clubs
Last updated: 2024-03-15 02:55:13 EDT
WiFi Access
Airport Statistics
Location: Syracuse, NY
Elevation: 421ft
Sectional: New York
Activation date: Aug 1943
Fuel: 100LL, A (prices)
Runway 10/28: 9,014ft
Runway 15/33: 7,500ft
Access: Open to the public
Current Weather — MVFR
  • Weather data is strictly informational and not for flight planning purposes.
  • METAR
    2024-05-26 07:54:00 EDT
    Ceiling Wind Temperature Dewpoint Weather Visbility
    1,500ft 310° @ 5kt 66°F 62°F N/A 10SM
    Clouds: Few @ 500ft, Broken @ 1,500ft
    Raw: KSYR 261154Z 31005KT 10SM FEW005 BKN015 19/17 A2996 RMK AO2 SLP141 60000 70021 T01890167 10189 20161 53020
  • TAF
    2024-05-26 08:00:00 EDT – 2024-05-26 12:00:00 EDT
    Ceiling Wind Weather Visbility
    1,500ft Variable Mist 5SM
    Clouds: Scattered @ 700ft, Broken @ 1,500ft
    Raw: KSYR 261120Z 2612/2712 VRB03KT 5SM BR SCT007 BKN015 FM261600 VRB05KT P6SM SCT100 FM270900 11012KT P6SM OVC025
  • TAF
    2024-05-26 12:00:00 EDT – 2024-05-27 05:00:00 EDT
    Ceiling Wind Weather Visbility
    Sky clear Variable N/A 6SM
    Clouds: Scattered @ 10,000ft
    Raw: KSYR 261120Z 2612/2712 VRB03KT 5SM BR SCT007 BKN015 FM261600 VRB05KT P6SM SCT100 FM270900 11012KT P6SM OVC025
  • TAF
    2024-05-27 05:00:00 EDT – 2024-05-27 08:00:00 EDT
    Ceiling Wind Weather Visbility
    2,500ft 110° @ 12kt N/A 6SM
    Clouds: Overcast @ 2,500ft
    Raw: KSYR 261120Z 2612/2712 VRB03KT 5SM BR SCT007 BKN015 FM261600 VRB05KT P6SM SCT100 FM270900 11012KT P6SM OVC025
Click/tap to add an annotation marker to the map
Airport Webcams
No webcams added yet.
Direct links to live image URLs will be displayed inline on this page. URLs to separate webpages will be linked to.
URL:
Direct links to live image URLs will be displayed inline on this page. URLs to separate webpages will be linked to.
URL:
Remarks
  • No charter oper thru passenger terminal bldg without prior permission.
  • Noise abatement procedures in effect.
  • Deer/coyote/birds on invof arpt.
  • No jet engine maint runs above idle btwn 2300-0600.
  • No tsnt acft parking on main terminal ramp.
Comments
Leave a comment What was your experience like at this airport?